sensor_id;sensor_type;location;lat;lon;timestamp;P1;durP1;ratioP1;P2;durP2;ratioP2
19207;SDS011;9737;59.466;18.036;2022-08-14T00:02:27;8.27;;;4.82;;
19207;SDS011;9737;59.466;18.036;2022-08-14T00:04:57;7.95;;;4.85;;
19207;SDS011;9737;59.466;18.036;2022-08-14T00:07:26;7.97;;;4.70;;
19207;SDS011;9737;59.466;18.036;2022-08-14T00:09:55;7.20;;;4.95;;
19207;SDS011;9737;59.466;18.036;2022-08-14T00:12:46;5.78;;;4.70;;
19207;SDS011;9737;59.466;18.036;2022-08-14T00:15:24;6.88;;;5.07;;
19207;SDS011;9737;59.466;18.036;2022-08-14T00:18:10;7.22;;;4.63;;
19207;SDS011;9737;59.466;18.036;2022-08-14T00:21:00;11.00;;;4.80;;
19207;SDS011;9737;59.466;18.036;2022-08-14T00:23:28;6.75;;;4.63;;
19207;SDS011;9737;59.466;18.036;2022-08-14T00:25:58;8.73;;;4.78;;
19207;SDS011;9737;59.466;18.036;2022-08-14T00:28:35;8.25;;;4.78;;
19207;SDS011;9737;59.466;18.036;2022-08-14T00:31:04;7.35;;;5.05;;
19207;SDS011;9737;59.466;18.036;2022-08-14T00:33:36;8.65;;;5.40;;
19207;SDS011;9737;59.466;18.036;2022-08-14T00:36:18;7.68;;;5.55;;
19207;SDS011;9737;59.466;18.036;2022-08-14T00:39:10;8.23;;;4.78;;
19207;SDS011;9737;59.466;18.036;2022-08-14T00:41:44;6.25;;;5.18;;
19207;SDS011;9737;59.466;18.036;2022-08-14T00:44:15;6.40;;;4.82;;
19207;SDS011;9737;59.466;18.036;2022-08-14T00:46:58;6.88;;;4.80;;
19207;SDS011;9737;59.466;18.036;2022-08-14T00:49:28;6.38;;;5.13;;
19207;SDS011;9737;59.466;18.036;2022-08-14T00:52:04;6.32;;;4.90;;
19207;SDS011;9737;59.466;18.036;2022-08-14T00:54:32;6.85;;;5.35;;
19207;SDS011;9737;59.466;18.036;2022-08-14T00:57:06;11.32;;;5.20;;
19207;SDS011;9737;59.466;18.036;2022-08-14T00:59:36;7.95;;;5.53;;
19207;SDS011;9737;59.466;18.036;2022-08-14T01:02:07;7.80;;;5.30;;
19207;SDS011;9737;59.466;18.036;2022-08-14T01:04:37;6.75;;;5.13;;
19207;SDS011;9737;59.466;18.036;2022-08-14T01:07:20;9.27;;;5.47;;
19207;SDS011;9737;59.466;18.036;2022-08-14T01:09:49;7.10;;;5.13;;
19207;SDS011;9737;59.466;18.036;2022-08-14T01:12:20;8.10;;;5.55;;
19207;SDS011;9737;59.466;18.036;2022-08-14T01:14:57;7.85;;;5.50;;
19207;SDS011;9737;59.466;18.036;2022-08-14T01:17:28;10.57;;;5.20;;
19207;SDS011;9737;59.466;18.036;2022-08-14T01:20:16;6.50;;;5.30;;
19207;SDS011;9737;59.466;18.036;2022-08-14T01:23:08;7.72;;;5.38;;
19207;SDS011;9737;59.466;18.036;2022-08-14T01:25:44;6.53;;;5.28;;
19207;SDS011;9737;59.466;18.036;2022-08-14T01:28:17;13.05;;;5.93;;
19207;SDS011;9737;59.466;18.036;2022-08-14T01:31:08;8.52;;;5.60;;
19207;SDS011;9737;59.466;18.036;2022-08-14T01:33:40;8.15;;;5.30;;
19207;SDS011;9737;59.466;18.036;2022-08-14T01:36:30;9.77;;;5.88;;
19207;SDS011;9737;59.466;18.036;2022-08-14T01:39:05;6.13;;;5.32;;
19207;SDS011;9737;59.466;18.036;2022-08-14T01:41:39;8.50;;;5.32;;
19207;SDS011;9737;59.466;18.036;2022-08-14T01:44:12;7.28;;;5.25;;
19207;SDS011;9737;59.466;18.036;2022-08-14T01:47:00;8.27;;;5.65;;
19207;SDS011;9737;59.466;18.036;2022-08-14T01:49:31;7.63;;;5.32;;
19207;SDS011;9737;59.466;18.036;2022-08-14T01:52:08;7.05;;;5.70;;
19207;SDS011;9737;59.466;18.036;2022-08-14T01:54:57;9.20;;;5.50;;
19207;SDS011;9737;59.466;18.036;2022-08-14T01:57:26;9.13;;;5.47;;
19207;SDS011;9737;59.466;18.036;2022-08-14T02:00:15;6.47;;;5.68;;
19207;SDS011;9737;59.466;18.036;2022-08-14T02:02:44;11.05;;;5.78;;
19207;SDS011;9737;59.466;18.036;2022-08-14T02:05:18;7.07;;;5.40;;
19207;SDS011;9737;59.466;18.036;2022-08-14T02:07:47;6.82;;;5.32;;
19207;SDS011;9737;59.466;18.036;2022-08-14T02:10:36;6.05;;;4.97;;
19207;SDS011;9737;59.466;18.036;2022-08-14T02:13:13;9.32;;;5.03;;
19207;SDS011;9737;59.466;18.036;2022-08-14T02:15:44;8.02;;;5.63;;
19207;SDS011;9737;59.466;18.036;2022-08-14T02:18:15;9.85;;;5.18;;
19207;SDS011;9737;59.466;18.036;2022-08-14T02:20:44;6.43;;;5.03;;
19207;SDS011;9737;59.466;18.036;2022-08-14T02:23:17;7.85;;;5.13;;
19207;SDS011;9737;59.466;18.036;2022-08-14T02:25:59;6.43;;;5.13;;
19207;SDS011;9737;59.466;18.036;2022-08-14T02:28:52;7.10;;;5.57;;
19207;SDS011;9737;59.466;18.036;2022-08-14T02:31:26;8.15;;;5.53;;
19207;SDS011;9737;59.466;18.036;2022-08-14T02:34:09;8.15;;;5.70;;
19207;SDS011;9737;59.466;18.036;2022-08-14T02:36:52;8.38;;;5.32;;
19207;SDS011;9737;59.466;18.036;2022-08-14T02:39:32;6.38;;;5.20;;
19207;SDS011;9737;59.466;18.036;2022-08-14T02:42:04;6.30;;;5.15;;
19207;SDS011;9737;59.466;18.036;2022-08-14T02:44:39;6.97;;;5.22;;
19207;SDS011;9737;59.466;18.036;2022-08-14T02:47:15;7.50;;;5.20;;
19207;SDS011;9737;59.466;18.036;2022-08-14T02:49:47;7.80;;;4.88;;
19207;SDS011;9737;59.466;18.036;2022-08-14T02:52:22;7.70;;;5.03;;
19207;SDS011;9737;59.466;18.036;2022-08-14T02:55:11;6.07;;;4.97;;
19207;SDS011;9737;59.466;18.036;2022-08-14T02:57:48;11.02;;;5.40;;
19207;SDS011;9737;59.466;18.036;2022-08-14T03:00:30;7.47;;;5.78;;
19207;SDS011;9737;59.466;18.036;2022-08-14T03:03:05;9.65;;;5.75;;
19207;SDS011;9737;59.466;18.036;2022-08-14T03:05:35;9.82;;;5.25;;
19207;SDS011;9737;59.466;18.036;2022-08-14T03:08:08;7.95;;;5.43;;
19207;SDS011;9737;59.466;18.036;2022-08-14T03:10:44;7.60;;;5.28;;
19207;SDS011;9737;59.466;18.036;2022-08-14T03:13:16;9.10;;;5.75;;
19207;SDS011;9737;59.466;18.036;2022-08-14T03:15:48;6.75;;;5.57;;
19207;SDS011;9737;59.466;18.036;2022-08-14T03:18:22;9.18;;;5.75;;
19207;SDS011;9737;59.466;18.036;2022-08-14T03:21:01;8.18;;;5.47;;
19207;SDS011;9737;59.466;18.036;2022-08-14T03:23:33;7.82;;;5.53;;
19207;SDS011;9737;59.466;18.036;2022-08-14T03:26:05;6.72;;;5.53;;
19207;SDS011;9737;59.466;18.036;2022-08-14T03:28:46;7.80;;;5.25;;
19207;SDS011;9737;59.466;18.036;2022-08-14T03:31:18;7.68;;;5.28;;
19207;SDS011;9737;59.466;18.036;2022-08-14T03:33:54;7.13;;;5.47;;
19207;SDS011;9737;59.466;18.036;2022-08-14T03:36:26;8.65;;;5.10;;
19207;SDS011;9737;59.466;18.036;2022-08-14T03:39:17;10.48;;;5.13;;
19207;SDS011;9737;59.466;18.036;2022-08-14T03:41:50;8.13;;;5.18;;
19207;SDS011;9737;59.466;18.036;2022-08-14T03:44:22;7.75;;;4.97;;
19207;SDS011;9737;59.466;18.036;2022-08-14T03:47:10;6.90;;;5.10;;
19207;SDS011;9737;59.466;18.036;2022-08-14T03:49:41;7.72;;;5.25;;
19207;SDS011;9737;59.466;18.036;2022-08-14T03:52:16;11.93;;;5.38;;
19207;SDS011;9737;59.466;18.036;2022-08-14T03:55:05;8.63;;;5.03;;
19207;SDS011;9737;59.466;18.036;2022-08-14T03:57:34;6.85;;;5.32;;
19207;SDS011;9737;59.466;18.036;2022-08-14T04:00:09;9.10;;;5.03;;
19207;SDS011;9737;59.466;18.036;2022-08-14T04:02:59;6.80;;;4.85;;
19207;SDS011;9737;59.466;18.036;2022-08-14T04:05:28;7.78;;;5.18;;
19207;SDS011;9737;59.466;18.036;2022-08-14T04:08:08;7.38;;;5.13;;
19207;SDS011;9737;59.466;18.036;2022-08-14T04:10:55;6.28;;;5.00;;
19207;SDS011;9737;59.466;18.036;2022-08-14T04:13:23;8.52;;;4.85;;
19207;SDS011;9737;59.466;18.036;2022-08-14T04:15:58;8.98;;;4.90;;
19207;SDS011;9737;59.466;18.036;2022-08-14T04:18:30;8.73;;;4.47;;
19207;SDS011;9737;59.466;18.036;2022-08-14T04:20:59;7.32;;;5.32;;
19207;SDS011;9737;59.466;18.036;2022-08-14T04:23:29;6.80;;;5.00;;
19207;SDS011;9737;59.466;18.036;2022-08-14T04:25:59;6.50;;;4.88;;
19207;SDS011;9737;59.466;18.036;2022-08-14T04:28:28;5.22;;;4.70;;
19207;SDS011;9737;59.466;18.036;2022-08-14T04:31:19;8.43;;;5.10;;
19207;SDS011;9737;59.466;18.036;2022-08-14T04:34:08;6.07;;;4.57;;
19207;SDS011;9737;59.466;18.036;2022-08-14T04:36:42;6.53;;;4.70;;
19207;SDS011;9737;59.466;18.036;2022-08-14T04:39:25;5.97;;;4.70;;
19207;SDS011;9737;59.466;18.036;2022-08-14T04:42:12;6.40;;;4.25;;
19207;SDS011;9737;59.466;18.036;2022-08-14T04:44:58;14.55;;;4.55;;
19207;SDS011;9737;59.466;18.036;2022-08-14T04:47:28;5.90;;;4.70;;
19207;SDS011;9737;59.466;18.036;2022-08-14T04:50:19;6.03;;;4.55;;
19207;SDS011;9737;59.466;18.036;2022-08-14T04:53:08;9.57;;;4.03;;
19207;SDS011;9737;59.466;18.036;2022-08-14T04:55:39;7.65;;;4.45;;
19207;SDS011;9737;59.466;18.036;2022-08-14T04:58:08;7.15;;;4.22;;
19207;SDS011;9737;59.466;18.036;2022-08-14T05:00:58;6.57;;;3.85;;
19207;SDS011;9737;59.466;18.036;2022-08-14T05:03:29;6.25;;;3.75;;
19207;SDS011;9737;59.466;18.036;2022-08-14T05:06:04;6.82;;;3.47;;
19207;SDS011;9737;59.466;18.036;2022-08-14T05:08:54;4.57;;;3.55;;
19207;SDS011;9737;59.466;18.036;2022-08-14T05:11:26;5.07;;;3.30;;
19207;SDS011;9737;59.466;18.036;2022-08-14T05:14:02;9.05;;;3.55;;
19207;SDS011;9737;59.466;18.036;2022-08-14T05:16:51;7.13;;;3.10;;
19207;SDS011;9737;59.466;18.036;2022-08-14T05:19:23;5.10;;;2.90;;
19207;SDS011;9737;59.466;18.036;2022-08-14T05:21:58;6.68;;;3.20;;
19207;SDS011;9737;59.466;18.036;2022-08-14T05:24:45;3.40;;;2.97;;
19207;SDS011;9737;59.466;18.036;2022-08-14T05:27:17;8.20;;;3.08;;
19207;SDS011;9737;59.466;18.036;2022-08-14T05:29:49;3.25;;;2.47;;
19207;SDS011;9737;59.466;18.036;2022-08-14T05:32:25;10.35;;;3.13;;
19207;SDS011;9737;59.466;18.036;2022-08-14T05:34:56;3.55;;;2.58;;
19207;SDS011;9737;59.466;18.036;2022-08-14T05:37:27;4.88;;;2.90;;
19207;SDS011;9737;59.466;18.036;2022-08-14T05:39:59;4.97;;;2.90;;
19207;SDS011;9737;59.466;18.036;2022-08-14T05:42:28;8.13;;;2.60;;
19207;SDS011;9737;59.466;18.036;2022-08-14T05:44:59;4.20;;;2.45;;
19207;SDS011;9737;59.466;18.036;2022-08-14T05:47:39;6.72;;;2.42;;
19207;SDS011;9737;59.466;18.036;2022-08-14T05:50:10;4.10;;;2.67;;
19207;SDS011;9737;59.466;18.036;2022-08-14T05:52:44;6.90;;;2.42;;
19207;SDS011;9737;59.466;18.036;2022-08-14T05:55:12;3.95;;;2.30;;
19207;SDS011;9737;59.466;18.036;2022-08-14T05:57:48;7.20;;;2.45;;
19207;SDS011;9737;59.466;18.036;2022-08-14T06:00:24;6.25;;;2.50;;
19207;SDS011;9737;59.466;18.036;2022-08-14T06:03:04;5.75;;;2.70;;
19207;SDS011;9737;59.466;18.036;2022-08-14T06:05:35;7.20;;;2.30;;
19207;SDS011;9737;59.466;18.036;2022-08-14T06:08:04;3.53;;;2.28;;
19207;SDS011;9737;59.466;18.036;2022-08-14T06:11:01;4.60;;;2.20;;
19207;SDS011;9737;59.466;18.036;2022-08-14T06:13:32;3.13;;;2.50;;
19207;SDS011;9737;59.466;18.036;2022-08-14T06:16:12;8.75;;;2.38;;
19207;SDS011;9737;59.466;18.036;2022-08-14T06:18:45;4.80;;;2.20;;
19207;SDS011;9737;59.466;18.036;2022-08-14T06:21:20;4.43;;;2.17;;
19207;SDS011;9737;59.466;18.036;2022-08-14T06:23:48;3.78;;;2.00;;
19207;SDS011;9737;59.466;18.036;2022-08-14T06:26:17;4.65;;;2.20;;
19207;SDS011;9737;59.466;18.036;2022-08-14T06:28:48;3.03;;;2.10;;
19207;SDS011;9737;59.466;18.036;2022-08-14T06:31:18;5.40;;;2.10;;
19207;SDS011;9737;59.466;18.036;2022-08-14T06:33:49;6.82;;;2.20;;
19207;SDS011;9737;59.466;18.036;2022-08-14T06:36:44;7.15;;;2.00;;
19207;SDS011;9737;59.466;18.036;2022-08-14T06:39:21;5.47;;;2.17;;
19207;SDS011;9737;59.466;18.036;2022-08-14T06:42:03;6.85;;;2.22;;
19207;SDS011;9737;59.466;18.036;2022-08-14T06:44:31;5.43;;;1.95;;
19207;SDS011;9737;59.466;18.036;2022-08-14T06:47:01;4.55;;;2.10;;
19207;SDS011;9737;59.466;18.036;2022-08-14T06:49:30;5.50;;;2.00;;
19207;SDS011;9737;59.466;18.036;2022-08-14T06:52:15;3.08;;;2.00;;
19207;SDS011;9737;59.466;18.036;2022-08-14T06:54:44;3.78;;;1.70;;
19207;SDS011;9737;59.466;18.036;2022-08-14T06:57:12;6.07;;;2.13;;
19207;SDS011;9737;59.466;18.036;2022-08-14T06:59:43;2.40;;;1.83;;
19207;SDS011;9737;59.466;18.036;2022-08-14T07:02:11;3.10;;;1.95;;
19207;SDS011;9737;59.466;18.036;2022-08-14T07:04:58;5.10;;;2.10;;
19207;SDS011;9737;59.466;18.036;2022-08-14T07:07:50;4.00;;;1.90;;
19207;SDS011;9737;59.466;18.036;2022-08-14T07:10:19;3.25;;;1.88;;
19207;SDS011;9737;59.466;18.036;2022-08-14T07:12:51;3.25;;;2.00;;
19207;SDS011;9737;59.466;18.036;2022-08-14T07:15:30;4.32;;;2.00;;
19207;SDS011;9737;59.466;18.036;2022-08-14T07:18:05;3.25;;;1.92;;
19207;SDS011;9737;59.466;18.036;2022-08-14T07:20:35;2.88;;;2.00;;
19207;SDS011;9737;59.466;18.036;2022-08-14T07:23:05;3.50;;;1.65;;
19207;SDS011;9737;59.466;18.036;2022-08-14T07:25:46;2.38;;;1.75;;
19207;SDS011;9737;59.466;18.036;2022-08-14T07:28:18;3.90;;;1.90;;
19207;SDS011;9737;59.466;18.036;2022-08-14T07:30:50;4.65;;;2.00;;
19207;SDS011;9737;59.466;18.036;2022-08-14T07:33:22;3.58;;;1.83;;
19207;SDS011;9737;59.466;18.036;2022-08-14T07:35:56;2.17;;;1.98;;
19207;SDS011;9737;59.466;18.036;2022-08-14T07:38:27;4.75;;;2.13;;
19207;SDS011;9737;59.466;18.036;2022-08-14T07:41:04;4.28;;;1.80;;
19207;SDS011;9737;59.466;18.036;2022-08-14T07:43:42;6.15;;;1.98;;
19207;SDS011;9737;59.466;18.036;2022-08-14T07:46:20;4.05;;;1.80;;
19207;SDS011;9737;59.466;18.036;2022-08-14T07:48:56;5.55;;;2.00;;
19207;SDS011;9737;59.466;18.036;2022-08-14T07:51:25;4.53;;;1.95;;
19207;SDS011;9737;59.466;18.036;2022-08-14T07:54:04;4.22;;;1.70;;
19207;SDS011;9737;59.466;18.036;2022-08-14T07:56:37;4.70;;;1.90;;
19207;SDS011;9737;59.466;18.036;2022-08-14T07:59:13;4.35;;;1.70;;
19207;SDS011;9737;59.466;18.036;2022-08-14T08:01:44;4.13;;;1.65;;
19207;SDS011;9737;59.466;18.036;2022-08-14T08:04:18;3.42;;;1.75;;
19207;SDS011;9737;59.466;18.036;2022-08-14T08:06:52;7.00;;;2.00;;
19207;SDS011;9737;59.466;18.036;2022-08-14T08:09:24;1.95;;;1.80;;
19207;SDS011;9737;59.466;18.036;2022-08-14T08:11:58;4.55;;;1.88;;
19207;SDS011;9737;59.466;18.036;2022-08-14T08:14:39;3.85;;;1.73;;
19207;SDS011;9737;59.466;18.036;2022-08-14T08:17:28;3.63;;;1.80;;
19207;SDS011;9737;59.466;18.036;2022-08-14T08:20:04;3.05;;;1.70;;
19207;SDS011;9737;59.466;18.036;2022-08-14T08:22:37;5.13;;;1.80;;
19207;SDS011;9737;59.466;18.036;2022-08-14T08:25:16;3.75;;;1.80;;
19207;SDS011;9737;59.466;18.036;2022-08-14T08:27:55;3.08;;;1.90;;
19207;SDS011;9737;59.466;18.036;2022-08-14T08:30:25;2.33;;;1.80;;
19207;SDS011;9737;59.466;18.036;2022-08-14T08:32:56;3.25;;;1.80;;
19207;SDS011;9737;59.466;18.036;2022-08-14T08:35:29;8.57;;;1.73;;
19207;SDS011;9737;59.466;18.036;2022-08-14T08:38:16;1.98;;;1.70;;
19207;SDS011;9737;59.466;18.036;2022-08-14T08:41:07;6.30;;;1.80;;
19207;SDS011;9737;59.466;18.036;2022-08-14T08:43:37;5.35;;;1.50;;
19207;SDS011;9737;59.466;18.036;2022-08-14T08:46:12;7.03;;;1.75;;
19207;SDS011;9737;59.466;18.036;2022-08-14T08:48:50;6.53;;;1.88;;
19207;SDS011;9737;59.466;18.036;2022-08-14T08:51:20;3.55;;;1.70;;
19207;SDS011;9737;59.466;18.036;2022-08-14T08:54:00;4.28;;;1.60;;
19207;SDS011;9737;59.466;18.036;2022-08-14T08:56:33;2.97;;;1.55;;
19207;SDS011;9737;59.466;18.036;2022-08-14T08:59:20;4.60;;;1.73;;
19207;SDS011;9737;59.466;18.036;2022-08-14T09:02:00;2.75;;;1.60;;
19207;SDS011;9737;59.466;18.036;2022-08-14T09:04:33;4.50;;;1.50;;
19207;SDS011;9737;59.466;18.036;2022-08-14T09:07:18;4.85;;;1.70;;
19207;SDS011;9737;59.466;18.036;2022-08-14T09:09:52;7.80;;;2.00;;
19207;SDS011;9737;59.466;18.036;2022-08-14T09:12:27;1.90;;;1.60;;
19207;SDS011;9737;59.466;18.036;2022-08-14T09:14:59;3.97;;;1.73;;
19207;SDS011;9737;59.466;18.036;2022-08-14T09:17:28;6.75;;;1.80;;
19207;SDS011;9737;59.466;18.036;2022-08-14T09:19:59;3.15;;;1.48;;
19207;SDS011;9737;59.466;18.036;2022-08-14T09:22:32;5.55;;;1.60;;
19207;SDS011;9737;59.466;18.036;2022-08-14T09:25:13;5.05;;;1.90;;
19207;SDS011;9737;59.466;18.036;2022-08-14T09:27:45;5.22;;;1.70;;
19207;SDS011;9737;59.466;18.036;2022-08-14T09:30:15;5.28;;;1.52;;
19207;SDS011;9737;59.466;18.036;2022-08-14T09:33:02;2.25;;;1.50;;
19207;SDS011;9737;59.466;18.036;2022-08-14T09:35:55;3.28;;;1.55;;
19207;SDS011;9737;59.466;18.036;2022-08-14T09:38:53;3.72;;;1.55;;
19207;SDS011;9737;59.466;18.036;2022-08-14T09:41:53;3.60;;;1.45;;
19207;SDS011;9737;59.466;18.036;2022-08-14T09:45:00;4.72;;;1.30;;
19207;SDS011;9737;59.466;18.036;2022-08-14T09:47:45;2.33;;;1.30;;
19207;SDS011;9737;59.466;18.036;2022-08-14T09:50:22;5.00;;;1.15;;
19207;SDS011;9737;59.466;18.036;2022-08-14T09:52:58;2.22;;;1.00;;
19207;SDS011;9737;59.466;18.036;2022-08-14T09:55:31;5.32;;;1.00;;
19207;SDS011;9737;59.466;18.036;2022-08-14T09:58:08;1.55;;;0.98;;
19207;SDS011;9737;59.466;18.036;2022-08-14T10:00:47;1.25;;;1.08;;
19207;SDS011;9737;59.466;18.036;2022-08-14T10:03:25;2.08;;;1.00;;
19207;SDS011;9737;59.466;18.036;2022-08-14T10:06:04;6.63;;;1.30;;
19207;SDS011;9737;59.466;18.036;2022-08-14T10:08:42;3.03;;;1.10;;
19207;SDS011;9737;59.466;18.036;2022-08-14T10:11:20;4.90;;;1.05;;
19207;SDS011;9737;59.466;18.036;2022-08-14T10:13:50;3.58;;;1.17;;
19207;SDS011;9737;59.466;18.036;2022-08-14T10:16:24;1.20;;;1.00;;
19207;SDS011;9737;59.466;18.036;2022-08-14T10:19:01;1.85;;;0.90;;
19207;SDS011;9737;59.466;18.036;2022-08-14T10:21:35;2.35;;;1.20;;
19207;SDS011;9737;59.466;18.036;2022-08-14T10:24:25;1.20;;;0.95;;
19207;SDS011;9737;59.466;18.036;2022-08-14T10:27:03;2.90;;;1.02;;
19207;SDS011;9737;59.466;18.036;2022-08-14T10:29:33;1.85;;;1.00;;
19207;SDS011;9737;59.466;18.036;2022-08-14T10:32:04;4.50;;;0.90;;
19207;SDS011;9737;59.466;18.036;2022-08-14T10:35:02;3.50;;;1.23;;
19207;SDS011;9737;59.466;18.036;2022-08-14T10:37:39;6.25;;;1.10;;
19207;SDS011;9737;59.466;18.036;2022-08-14T10:40:15;3.60;;;1.05;;
19207;SDS011;9737;59.466;18.036;2022-08-14T10:43:16;4.93;;;1.10;;
19207;SDS011;9737;59.466;18.036;2022-08-14T10:45:52;1.33;;;0.77;;
19207;SDS011;9737;59.466;18.036;2022-08-14T10:48:55;2.42;;;0.90;;
19207;SDS011;9737;59.466;18.036;2022-08-14T10:51:25;1.13;;;0.90;;
19207;SDS011;9737;59.466;18.036;2022-08-14T10:53:55;2.95;;;0.95;;
19207;SDS011;9737;59.466;18.036;2022-08-14T10:56:42;4.97;;;1.02;;
19207;SDS011;9737;59.466;18.036;2022-08-14T10:59:11;2.88;;;0.80;;
19207;SDS011;9737;59.466;18.036;2022-08-14T11:01:41;1.33;;;0.90;;
19207;SDS011;9737;59.466;18.036;2022-08-14T11:04:21;4.35;;;0.98;;
19207;SDS011;9737;59.466;18.036;2022-08-14T11:06:56;1.90;;;0.80;;
19207;SDS011;9737;59.466;18.036;2022-08-14T11:09:35;3.17;;;0.90;;
19207;SDS011;9737;59.466;18.036;2022-08-14T11:12:07;2.25;;;0.80;;
19207;SDS011;9737;59.466;18.036;2022-08-14T11:15:00;3.47;;;1.00;;
19207;SDS011;9737;59.466;18.036;2022-08-14T11:17:30;1.67;;;0.80;;
19207;SDS011;9737;59.466;18.036;2022-08-14T11:20:02;2.47;;;0.88;;
19207;SDS011;9737;59.466;18.036;2022-08-14T11:22:42;3.22;;;1.20;;
19207;SDS011;9737;59.466;18.036;2022-08-14T11:25:24;3.47;;;1.08;;
19207;SDS011;9737;59.466;18.036;2022-08-14T11:28:09;3.35;;;1.20;;
19207;SDS011;9737;59.466;18.036;2022-08-14T11:30:45;2.30;;;1.10;;
19207;SDS011;9737;59.466;18.036;2022-08-14T11:33:23;4.57;;;1.48;;
19207;SDS011;9737;59.466;18.036;2022-08-14T11:36:05;1.92;;;0.90;;
19207;SDS011;9737;59.466;18.036;2022-08-14T11:38:44;3.28;;;0.95;;
19207;SDS011;9737;59.466;18.036;2022-08-14T11:41:14;2.03;;;1.00;;
19207;SDS011;9737;59.466;18.036;2022-08-14T11:43:43;2.22;;;0.80;;
19207;SDS011;9737;59.466;18.036;2022-08-14T11:46:24;3.28;;;1.10;;
19207;SDS011;9737;59.466;18.036;2022-08-14T11:49:03;5.00;;;0.90;;
19207;SDS011;9737;59.466;18.036;2022-08-14T11:51:33;0.88;;;0.88;;
19207;SDS011;9737;59.466;18.036;2022-08-14T11:54:22;3.05;;;0.98;;
19207;SDS011;9737;59.466;18.036;2022-08-14T11:57:00;0.90;;;0.90;;
19207;SDS011;9737;59.466;18.036;2022-08-14T11:59:34;1.52;;;0.95;;
19207;SDS011;9737;59.466;18.036;2022-08-14T12:02:10;4.25;;;1.13;;
19207;SDS011;9737;59.466;18.036;2022-08-14T12:05:03;1.25;;;0.88;;
19207;SDS011;9737;59.466;18.036;2022-08-14T12:07:36;2.53;;;0.93;;
19207;SDS011;9737;59.466;18.036;2022-08-14T12:10:16;1.35;;;1.00;;
19207;SDS011;9737;59.466;18.036;2022-08-14T12:12:55;1.27;;;0.98;;
19207;SDS011;9737;59.466;18.036;2022-08-14T12:15:29;1.30;;;1.10;;
19207;SDS011;9737;59.466;18.036;2022-08-14T12:18:01;5.38;;;1.15;;
19207;SDS011;9737;59.466;18.036;2022-08-14T12:20:37;3.45;;;1.10;;
19207;SDS011;9737;59.466;18.036;2022-08-14T12:23:20;1.20;;;1.10;;
19207;SDS011;9737;59.466;18.036;2022-08-14T12:26:00;3.97;;;1.33;;
19207;SDS011;9737;59.466;18.036;2022-08-14T12:28:50;1.60;;;1.10;;
19207;SDS011;9737;59.466;18.036;2022-08-14T12:31:25;1.83;;;1.45;;
19207;SDS011;9737;59.466;18.036;2022-08-14T12:34:11;3.17;;;1.17;;
19207;SDS011;9737;59.466;18.036;2022-08-14T12:36:59;2.30;;;1.30;;
19207;SDS011;9737;59.466;18.036;2022-08-14T12:39:33;2.85;;;1.30;;
19207;SDS011;9737;59.466;18.036;2022-08-14T12:42:06;5.45;;;1.23;;
19207;SDS011;9737;59.466;18.036;2022-08-14T12:44:54;1.02;;;1.00;;
19207;SDS011;9737;59.466;18.036;2022-08-14T12:47:29;4.13;;;1.15;;
19207;SDS011;9737;59.466;18.036;2022-08-14T12:49:58;1.77;;;1.02;;
19207;SDS011;9737;59.466;18.036;2022-08-14T12:52:28;1.58;;;1.00;;
19207;SDS011;9737;59.466;18.036;2022-08-14T12:55:19;2.63;;;1.20;;
19207;SDS011;9737;59.466;18.036;2022-08-14T12:57:58;1.58;;;1.20;;
19207;SDS011;9737;59.466;18.036;2022-08-14T13:00:50;1.90;;;1.20;;
19207;SDS011;9737;59.466;18.036;2022-08-14T13:03:38;3.05;;;1.00;;
19207;SDS011;9737;59.466;18.036;2022-08-14T13:06:11;1.13;;;1.02;;
19207;SDS011;9737;59.466;18.036;2022-08-14T13:08:41;2.70;;;0.88;;
19207;SDS011;9737;59.466;18.036;2022-08-14T13:11:20;2.25;;;1.20;;
19207;SDS011;9737;59.466;18.036;2022-08-14T13:13:51;3.38;;;1.25;;
19207;SDS011;9737;59.466;18.036;2022-08-14T13:16:24;3.60;;;1.17;;
19207;SDS011;9737;59.466;18.036;2022-08-14T13:19:03;5.45;;;1.00;;
19207;SDS011;9737;59.466;18.036;2022-08-14T13:21:37;1.58;;;1.10;;
19207;SDS011;9737;59.466;18.036;2022-08-14T13:24:29;1.95;;;0.93;;
19207;SDS011;9737;59.466;18.036;2022-08-14T13:27:00;2.65;;;1.20;;
19207;SDS011;9737;59.466;18.036;2022-08-14T13:29:31;7.07;;;1.10;;
19207;SDS011;9737;59.466;18.036;2022-08-14T13:32:13;3.53;;;1.50;;
19207;SDS011;9737;59.466;18.036;2022-08-14T13:34:42;8.82;;;1.75;;
19207;SDS011;9737;59.466;18.036;2022-08-14T13:37:17;4.70;;;1.50;;
19207;SDS011;9737;59.466;18.036;2022-08-14T13:39:48;2.25;;;1.17;;
19207;SDS011;9737;59.466;18.036;2022-08-14T13:42:25;4.55;;;1.95;;
19207;SDS011;9737;59.466;18.036;2022-08-14T13:45:00;2.50;;;1.33;;
19207;SDS011;9737;59.466;18.036;2022-08-14T13:47:34;7.72;;;2.28;;
19207;SDS011;9737;59.466;18.036;2022-08-14T13:50:10;7.07;;;2.03;;
19207;SDS011;9737;59.466;18.036;2022-08-14T13:52:46;9.27;;;2.40;;
19207;SDS011;9737;59.466;18.036;2022-08-14T13:55:20;6.47;;;2.42;;
19207;SDS011;9737;59.466;18.036;2022-08-14T13:57:56;12.40;;;2.40;;
19207;SDS011;9737;59.466;18.036;2022-08-14T14:00:31;7.18;;;1.42;;
19207;SDS011;9737;59.466;18.036;2022-08-14T14:03:17;14.70;;;3.80;;
19207;SDS011;9737;59.466;18.036;2022-08-14T14:05:49;8.93;;;2.33;;
19207;SDS011;9737;59.466;18.036;2022-08-14T14:08:21;4.07;;;1.40;;
19207;SDS011;9737;59.466;18.036;2022-08-14T14:11:14;4.45;;;1.63;;
19207;SDS011;9737;59.466;18.036;2022-08-14T14:13:46;5.07;;;1.45;;
19207;SDS011;9737;59.466;18.036;2022-08-14T14:16:15;6.88;;;1.70;;
19207;SDS011;9737;59.466;18.036;2022-08-14T14:18:59;4.13;;;1.35;;
19207;SDS011;9737;59.466;18.036;2022-08-14T14:21:36;4.60;;;1.25;;
19207;SDS011;9737;59.466;18.036;2022-08-14T14:24:09;7.50;;;1.70;;
19207;SDS011;9737;59.466;18.036;2022-08-14T14:26:46;12.95;;;1.77;;
19207;SDS011;9737;59.466;18.036;2022-08-14T14:29:18;8.65;;;1.55;;
19207;SDS011;9737;59.466;18.036;2022-08-14T14:31:52;5.80;;;1.60;;
19207;SDS011;9737;59.466;18.036;2022-08-14T14:34:24;5.50;;;1.42;;
19207;SDS011;9737;59.466;18.036;2022-08-14T14:36:58;11.77;;;1.70;;
19207;SDS011;9737;59.466;18.036;2022-08-14T14:39:29;2.85;;;1.38;;
19207;SDS011;9737;59.466;18.036;2022-08-14T14:42:20;5.45;;;1.50;;
19207;SDS011;9737;59.466;18.036;2022-08-14T14:45:02;7.38;;;1.40;;
19207;SDS011;9737;59.466;18.036;2022-08-14T14:47:34;9.13;;;1.48;;
19207;SDS011;9737;59.466;18.036;2022-08-14T14:50:04;6.10;;;1.48;;
19207;SDS011;9737;59.466;18.036;2022-08-14T14:52:36;10.73;;;2.00;;
19207;SDS011;9737;59.466;18.036;2022-08-14T14:55:18;6.15;;;1.42;;
19207;SDS011;9737;59.466;18.036;2022-08-14T14:57:49;6.63;;;1.60;;
19207;SDS011;9737;59.466;18.036;2022-08-14T15:00:30;6.78;;;1.67;;
19207;SDS011;9737;59.466;18.036;2022-08-14T15:03:07;6.53;;;1.60;;
19207;SDS011;9737;59.466;18.036;2022-08-14T15:05:42;7.07;;;1.58;;
19207;SDS011;9737;59.466;18.036;2022-08-14T15:08:18;11.32;;;1.70;;
19207;SDS011;9737;59.466;18.036;2022-08-14T15:11:10;6.82;;;1.25;;
19207;SDS011;9737;59.466;18.036;2022-08-14T15:13:39;4.53;;;1.48;;
19207;SDS011;9737;59.466;18.036;2022-08-14T15:16:19;3.80;;;1.35;;
19207;SDS011;9737;59.466;18.036;2022-08-14T15:18:52;7.25;;;1.40;;
19207;SDS011;9737;59.466;18.036;2022-08-14T15:21:22;9.15;;;1.58;;
19207;SDS011;9737;59.466;18.036;2022-08-14T15:23:52;2.25;;;1.25;;
19207;SDS011;9737;59.466;18.036;2022-08-14T15:26:23;3.58;;;1.40;;
19207;SDS011;9737;59.466;18.036;2022-08-14T15:28:59;4.03;;;1.33;;
19207;SDS011;9737;59.466;18.036;2022-08-14T15:31:33;5.47;;;1.42;;
19207;SDS011;9737;59.466;18.036;2022-08-14T15:34:11;5.70;;;1.58;;
19207;SDS011;9737;59.466;18.036;2022-08-14T15:37:07;6.07;;;1.60;;
19207;SDS011;9737;59.466;18.036;2022-08-14T15:39:45;4.57;;;2.03;;
19207;SDS011;9737;59.466;18.036;2022-08-14T15:42:20;5.03;;;1.75;;
19207;SDS011;9737;59.466;18.036;2022-08-14T15:44:53;3.47;;;1.88;;
19207;SDS011;9737;59.466;18.036;2022-08-14T15:47:29;8.10;;;1.92;;